sensor_id;sensor_type;location;lat;lon;timestamp;P1;durP1;ratioP1;P2;durP2;ratioP2
48114;SDS011;33903;44.704;10.448;2024-02-28T00:02:40;28.83;;;17.80;;
48114;SDS011;33903;44.704;10.448;2024-02-28T00:05:44;28.67;;;18.33;;
48114;SDS011;33903;44.704;10.448;2024-02-28T00:08:49;34.80;;;20.92;;
48114;SDS011;33903;44.704;10.448;2024-02-28T00:11:54;33.63;;;21.42;;
48114;SDS011;33903;44.704;10.448;2024-02-28T00:14:58;28.90;;;18.67;;
48114;SDS011;33903;44.704;10.448;2024-02-28T00:18:03;31.60;;;19.75;;
48114;SDS011;33903;44.704;10.448;2024-02-28T00:21:08;31.13;;;17.77;;
48114;SDS011;33903;44.704;10.448;2024-02-28T00:24:12;29.70;;;18.38;;
48114;SDS011;33903;44.704;10.448;2024-02-28T00:27:16;25.73;;;17.10;;
48114;SDS011;33903;44.704;10.448;2024-02-28T00:30:21;30.95;;;19.50;;
48114;SDS011;33903;44.704;10.448;2024-02-28T00:33:25;28.58;;;17.65;;
48114;SDS011;33903;44.704;10.448;2024-02-28T00:36:30;26.33;;;17.83;;
48114;SDS011;33903;44.704;10.448;2024-02-28T00:39:34;27.70;;;17.58;;
48114;SDS011;33903;44.704;10.448;2024-02-28T00:42:39;29.60;;;17.83;;
48114;SDS011;33903;44.704;10.448;2024-02-28T00:45:43;32.15;;;18.38;;
48114;SDS011;33903;44.704;10.448;2024-02-28T00:48:48;26.63;;;17.17;;
48114;SDS011;33903;44.704;10.448;2024-02-28T00:51:52;26.77;;;17.08;;
48114;SDS011;33903;44.704;10.448;2024-02-28T00:54:56;26.33;;;16.70;;
48114;SDS011;33903;44.704;10.448;2024-02-28T00:58:01;29.40;;;18.42;;
48114;SDS011;33903;44.704;10.448;2024-02-28T01:01:06;28.13;;;18.33;;
48114;SDS011;33903;44.704;10.448;2024-02-28T01:04:11;28.80;;;17.40;;
48114;SDS011;33903;44.704;10.448;2024-02-28T01:07:15;26.33;;;16.17;;
48114;SDS011;33903;44.704;10.448;2024-02-28T01:10:20;26.75;;;16.95;;
48114;SDS011;33903;44.704;10.448;2024-02-28T01:13:25;24.92;;;15.85;;
48114;SDS011;33903;44.704;10.448;2024-02-28T01:16:29;24.40;;;16.27;;
48114;SDS011;33903;44.704;10.448;2024-02-28T01:19:34;23.95;;;16.88;;
48114;SDS011;33903;44.704;10.448;2024-02-28T01:22:38;27.33;;;16.75;;
48114;SDS011;33903;44.704;10.448;2024-02-28T01:25:43;24.55;;;16.25;;
48114;SDS011;33903;44.704;10.448;2024-02-28T01:28:48;24.40;;;16.75;;
48114;SDS011;33903;44.704;10.448;2024-02-28T01:31:55;23.40;;;15.45;;
48114;SDS011;33903;44.704;10.448;2024-02-28T01:35:01;27.70;;;16.40;;
48114;SDS011;33903;44.704;10.448;2024-02-28T01:38:07;25.10;;;15.35;;
48114;SDS011;33903;44.704;10.448;2024-02-28T01:41:12;24.80;;;15.82;;
48114;SDS011;33903;44.704;10.448;2024-02-28T01:44:16;26.75;;;17.70;;
48114;SDS011;33903;44.704;10.448;2024-02-28T01:47:20;27.67;;;16.63;;
48114;SDS011;33903;44.704;10.448;2024-02-28T01:50:24;28.17;;;16.38;;
48114;SDS011;33903;44.704;10.448;2024-02-28T01:53:30;26.20;;;16.27;;
48114;SDS011;33903;44.704;10.448;2024-02-28T01:56:36;28.10;;;16.67;;
48114;SDS011;33903;44.704;10.448;2024-02-28T01:59:42;29.42;;;16.35;;
48114;SDS011;33903;44.704;10.448;2024-02-28T02:02:46;29.60;;;16.73;;
48114;SDS011;33903;44.704;10.448;2024-02-28T02:05:52;28.17;;;16.95;;
48114;SDS011;33903;44.704;10.448;2024-02-28T02:08:56;28.05;;;17.35;;
48114;SDS011;33903;44.704;10.448;2024-02-28T02:12:01;29.38;;;17.05;;
48114;SDS011;33903;44.704;10.448;2024-02-28T02:15:05;29.95;;;18.40;;
48114;SDS011;33903;44.704;10.448;2024-02-28T02:18:10;31.30;;;18.63;;
48114;SDS011;33903;44.704;10.448;2024-02-28T02:21:18;31.15;;;16.90;;
48114;SDS011;33903;44.704;10.448;2024-02-28T02:24:25;28.70;;;17.65;;
48114;SDS011;33903;44.704;10.448;2024-02-28T02:27:30;30.30;;;17.63;;
48114;SDS011;33903;44.704;10.448;2024-02-28T02:30:35;30.80;;;17.25;;
48114;SDS011;33903;44.704;10.448;2024-02-28T02:33:39;29.50;;;17.17;;
48114;SDS011;33903;44.704;10.448;2024-02-28T02:36:43;31.35;;;18.92;;
48114;SDS011;33903;44.704;10.448;2024-02-28T02:39:48;28.45;;;16.63;;
48114;SDS011;33903;44.704;10.448;2024-02-28T02:42:52;33.72;;;19.13;;
48114;SDS011;33903;44.704;10.448;2024-02-28T02:45:57;32.47;;;19.27;;
48114;SDS011;33903;44.704;10.448;2024-02-28T02:49:01;28.42;;;16.60;;
48114;SDS011;33903;44.704;10.448;2024-02-28T02:52:06;26.67;;;16.35;;
48114;SDS011;33903;44.704;10.448;2024-02-28T02:55:10;27.98;;;16.55;;
48114;SDS011;33903;44.704;10.448;2024-02-28T02:58:14;30.25;;;17.55;;
48114;SDS011;33903;44.704;10.448;2024-02-28T03:01:19;28.40;;;16.98;;
48114;SDS011;33903;44.704;10.448;2024-02-28T03:04:24;28.20;;;17.02;;
48114;SDS011;33903;44.704;10.448;2024-02-28T03:07:28;26.48;;;16.65;;
48114;SDS011;33903;44.704;10.448;2024-02-28T03:10:32;27.42;;;16.23;;
48114;SDS011;33903;44.704;10.448;2024-02-28T03:13:37;27.67;;;16.35;;
48114;SDS011;33903;44.704;10.448;2024-02-28T03:16:42;28.20;;;16.77;;
48114;SDS011;33903;44.704;10.448;2024-02-28T03:19:46;30.33;;;17.95;;
48114;SDS011;33903;44.704;10.448;2024-02-28T03:22:51;28.58;;;16.63;;
48114;SDS011;33903;44.704;10.448;2024-02-28T03:25:56;26.67;;;16.13;;
48114;SDS011;33903;44.704;10.448;2024-02-28T03:29:00;26.08;;;16.48;;
48114;SDS011;33903;44.704;10.448;2024-02-28T03:32:05;28.63;;;17.08;;
48114;SDS011;33903;44.704;10.448;2024-02-28T03:35:09;27.13;;;17.27;;
48114;SDS011;33903;44.704;10.448;2024-02-28T03:38:14;25.92;;;17.05;;
48114;SDS011;33903;44.704;10.448;2024-02-28T03:41:18;29.58;;;17.23;;
48114;SDS011;33903;44.704;10.448;2024-02-28T03:44:22;27.27;;;17.52;;
48114;SDS011;33903;44.704;10.448;2024-02-28T03:47:27;33.80;;;18.98;;
48114;SDS011;33903;44.704;10.448;2024-02-28T03:50:31;28.80;;;17.13;;
48114;SDS011;33903;44.704;10.448;2024-02-28T03:53:36;30.17;;;17.17;;
48114;SDS011;33903;44.704;10.448;2024-02-28T03:56:41;37.53;;;18.85;;
48114;SDS011;33903;44.704;10.448;2024-02-28T03:59:45;35.15;;;18.42;;
48114;SDS011;33903;44.704;10.448;2024-02-28T04:02:50;28.42;;;16.85;;
48114;SDS011;33903;44.704;10.448;2024-02-28T04:05:54;31.08;;;17.33;;
48114;SDS011;33903;44.704;10.448;2024-02-28T04:08:59;29.45;;;17.50;;
48114;SDS011;33903;44.704;10.448;2024-02-28T04:12:04;29.35;;;16.85;;
48114;SDS011;33903;44.704;10.448;2024-02-28T04:15:10;29.88;;;15.70;;
48114;SDS011;33903;44.704;10.448;2024-02-28T04:18:15;27.15;;;14.18;;
48114;SDS011;33903;44.704;10.448;2024-02-28T04:21:20;26.55;;;13.93;;
48114;SDS011;33903;44.704;10.448;2024-02-28T04:24:25;24.88;;;12.75;;
48114;SDS011;33903;44.704;10.448;2024-02-28T04:27:29;27.13;;;12.05;;
48114;SDS011;33903;44.704;10.448;2024-02-28T04:30:33;21.63;;;11.70;;
48114;SDS011;33903;44.704;10.448;2024-02-28T04:33:38;25.08;;;11.15;;
48114;SDS011;33903;44.704;10.448;2024-02-28T04:36:42;23.40;;;11.80;;
48114;SDS011;33903;44.704;10.448;2024-02-28T04:39:47;24.48;;;11.40;;
48114;SDS011;33903;44.704;10.448;2024-02-28T04:42:51;25.00;;;11.70;;
48114;SDS011;33903;44.704;10.448;2024-02-28T04:45:56;20.52;;;10.85;;
48114;SDS011;33903;44.704;10.448;2024-02-28T04:49:00;33.80;;;12.68;;
48114;SDS011;33903;44.704;10.448;2024-02-28T04:52:05;23.83;;;12.27;;
48114;SDS011;33903;44.704;10.448;2024-02-28T04:55:10;24.73;;;12.75;;
48114;SDS011;33903;44.704;10.448;2024-02-28T05:01:17;22.42;;;10.48;;
48114;SDS011;33903;44.704;10.448;2024-02-28T05:04:22;21.73;;;10.75;;
48114;SDS011;33903;44.704;10.448;2024-02-28T05:07:27;25.75;;;11.32;;
48114;SDS011;33903;44.704;10.448;2024-02-28T05:10:32;25.55;;;11.18;;
48114;SDS011;33903;44.704;10.448;2024-02-28T05:13:38;21.15;;;10.57;;
48114;SDS011;33903;44.704;10.448;2024-02-28T05:16:43;23.63;;;10.40;;
48114;SDS011;33903;44.704;10.448;2024-02-28T05:19:48;22.48;;;11.45;;
48114;SDS011;33903;44.704;10.448;2024-02-28T05:22:52;22.98;;;12.30;;
48114;SDS011;33903;44.704;10.448;2024-02-28T05:25:57;26.63;;;12.02;;
48114;SDS011;33903;44.704;10.448;2024-02-28T05:29:02;16.85;;;10.90;;
48114;SDS011;33903;44.704;10.448;2024-02-28T05:32:08;17.92;;;10.25;;
48114;SDS011;33903;44.704;10.448;2024-02-28T05:35:13;21.13;;;9.88;;
48114;SDS011;33903;44.704;10.448;2024-02-28T05:38:18;15.98;;;9.15;;
48114;SDS011;33903;44.704;10.448;2024-02-28T05:41:23;16.77;;;8.82;;
48114;SDS011;33903;44.704;10.448;2024-02-28T05:44:27;17.52;;;9.45;;
48114;SDS011;33903;44.704;10.448;2024-02-28T05:47:32;19.60;;;9.68;;
48114;SDS011;33903;44.704;10.448;2024-02-28T05:50:37;17.83;;;9.90;;
48114;SDS011;33903;44.704;10.448;2024-02-28T05:53:42;19.02;;;9.93;;
48114;SDS011;33903;44.704;10.448;2024-02-28T05:56:47;16.65;;;9.95;;
48114;SDS011;33903;44.704;10.448;2024-02-28T05:59:51;16.63;;;8.63;;
48114;SDS011;33903;44.704;10.448;2024-02-28T06:02:56;20.33;;;10.23;;
48114;SDS011;33903;44.704;10.448;2024-02-28T06:06:01;18.85;;;9.63;;
48114;SDS011;33903;44.704;10.448;2024-02-28T06:09:08;15.85;;;10.25;;
48114;SDS011;33903;44.704;10.448;2024-02-28T06:12:13;16.00;;;9.18;;
48114;SDS011;33903;44.704;10.448;2024-02-28T06:15:17;17.17;;;9.82;;
48114;SDS011;33903;44.704;10.448;2024-02-28T06:18:22;16.70;;;9.20;;
48114;SDS011;33903;44.704;10.448;2024-02-28T06:21:30;18.90;;;9.05;;
48114;SDS011;33903;44.704;10.448;2024-02-28T06:24:35;18.20;;;9.52;;
48114;SDS011;33903;44.704;10.448;2024-02-28T06:27:39;17.42;;;9.15;;
48114;SDS011;33903;44.704;10.448;2024-02-28T06:30:44;16.45;;;8.98;;
48114;SDS011;33903;44.704;10.448;2024-02-28T06:33:52;18.52;;;8.60;;
48114;SDS011;33903;44.704;10.448;2024-02-28T06:36:56;16.58;;;8.25;;
48114;SDS011;33903;44.704;10.448;2024-02-28T06:40:02;15.15;;;7.97;;
48114;SDS011;33903;44.704;10.448;2024-02-28T06:43:07;13.93;;;9.15;;
48114;SDS011;33903;44.704;10.448;2024-02-28T06:46:12;13.98;;;7.70;;
48114;SDS011;33903;44.704;10.448;2024-02-28T06:49:17;19.55;;;8.40;;
48114;SDS011;33903;44.704;10.448;2024-02-28T06:52:21;19.48;;;8.38;;
48114;SDS011;33903;44.704;10.448;2024-02-28T06:55:26;23.88;;;13.50;;
48114;SDS011;33903;44.704;10.448;2024-02-28T06:58:31;18.20;;;9.02;;
48114;SDS011;33903;44.704;10.448;2024-02-28T07:01:36;15.32;;;9.45;;
48114;SDS011;33903;44.704;10.448;2024-02-28T07:04:40;16.35;;;8.85;;
48114;SDS011;33903;44.704;10.448;2024-02-28T07:07:47;14.30;;;8.35;;
48114;SDS011;33903;44.704;10.448;2024-02-28T07:10:51;16.00;;;8.43;;
48114;SDS011;33903;44.704;10.448;2024-02-28T07:13:58;17.15;;;8.80;;
48114;SDS011;33903;44.704;10.448;2024-02-28T07:17:06;20.92;;;9.15;;
48114;SDS011;33903;44.704;10.448;2024-02-28T07:20:11;19.30;;;9.55;;
48114;SDS011;33903;44.704;10.448;2024-02-28T07:23:16;22.33;;;10.38;;
48114;SDS011;33903;44.704;10.448;2024-02-28T07:26:21;18.80;;;9.63;;
48114;SDS011;33903;44.704;10.448;2024-02-28T07:29:25;22.85;;;10.73;;
48114;SDS011;33903;44.704;10.448;2024-02-28T07:32:31;20.92;;;11.27;;
48114;SDS011;33903;44.704;10.448;2024-02-28T07:35:48;17.92;;;10.05;;
48114;SDS011;33903;44.704;10.448;2024-02-28T07:38:57;19.13;;;10.38;;
48114;SDS011;33903;44.704;10.448;2024-02-28T07:42:01;20.30;;;10.70;;
48114;SDS011;33903;44.704;10.448;2024-02-28T07:45:06;18.70;;;9.55;;
48114;SDS011;33903;44.704;10.448;2024-02-28T07:48:12;16.10;;;9.70;;
48114;SDS011;33903;44.704;10.448;2024-02-28T07:51:17;15.20;;;7.65;;
48114;SDS011;33903;44.704;10.448;2024-02-28T07:54:22;15.10;;;7.72;;
48114;SDS011;33903;44.704;10.448;2024-02-28T07:57:27;17.83;;;7.68;;
48114;SDS011;33903;44.704;10.448;2024-02-28T08:00:32;15.60;;;7.72;;
48114;SDS011;33903;44.704;10.448;2024-02-28T08:03:39;9.82;;;6.03;;
48114;SDS011;33903;44.704;10.448;2024-02-28T08:06:44;10.60;;;6.28;;
48114;SDS011;33903;44.704;10.448;2024-02-28T08:09:49;12.40;;;5.82;;
48114;SDS011;33903;44.704;10.448;2024-02-28T08:12:53;14.80;;;6.88;;
48114;SDS011;33903;44.704;10.448;2024-02-28T08:15:58;12.68;;;7.60;;
48114;SDS011;33903;44.704;10.448;2024-02-28T08:19:03;12.00;;;7.82;;
48114;SDS011;33903;44.704;10.448;2024-02-28T08:22:08;13.98;;;7.57;;
48114;SDS011;33903;44.704;10.448;2024-02-28T08:25:14;13.85;;;8.18;;
48114;SDS011;33903;44.704;10.448;2024-02-28T08:28:20;13.88;;;8.60;;
48114;SDS011;33903;44.704;10.448;2024-02-28T08:31:25;13.10;;;7.40;;
48114;SDS011;33903;44.704;10.448;2024-02-28T08:34:29;12.32;;;7.18;;
48114;SDS011;33903;44.704;10.448;2024-02-28T08:37:34;14.43;;;7.95;;
48114;SDS011;33903;44.704;10.448;2024-02-28T08:40:39;12.65;;;6.72;;
48114;SDS011;33903;44.704;10.448;2024-02-28T08:43:43;12.52;;;7.10;;
48114;SDS011;33903;44.704;10.448;2024-02-28T08:46:48;14.23;;;7.35;;
48114;SDS011;33903;44.704;10.448;2024-02-28T08:49:53;13.82;;;7.90;;
48114;SDS011;33903;44.704;10.448;2024-02-28T08:52:58;13.90;;;7.93;;
48114;SDS011;33903;44.704;10.448;2024-02-28T08:56:03;39.50;;;25.13;;
48114;SDS011;33903;44.704;10.448;2024-02-28T08:59:08;25.63;;;13.35;;
48114;SDS011;33903;44.704;10.448;2024-02-28T09:02:13;18.48;;;8.68;;
48114;SDS011;33903;44.704;10.448;2024-02-28T09:05:18;19.50;;;9.48;;
48114;SDS011;33903;44.704;10.448;2024-02-28T09:08:22;19.00;;;8.82;;
48114;SDS011;33903;44.704;10.448;2024-02-28T09:11:27;19.67;;;9.05;;
48114;SDS011;33903;44.704;10.448;2024-02-28T09:14:33;22.50;;;10.55;;
48114;SDS011;33903;44.704;10.448;2024-02-28T09:17:38;23.90;;;8.82;;
48114;SDS011;33903;44.704;10.448;2024-02-28T09:20:42;18.67;;;8.40;;
48114;SDS011;33903;44.704;10.448;2024-02-28T09:23:46;11.50;;;7.25;;
48114;SDS011;33903;44.704;10.448;2024-02-28T09:26:51;17.17;;;8.63;;
48114;SDS011;33903;44.704;10.448;2024-02-28T09:29:55;17.98;;;8.77;;
48114;SDS011;33903;44.704;10.448;2024-02-28T09:33:00;21.33;;;9.43;;
48114;SDS011;33903;44.704;10.448;2024-02-28T09:36:05;16.52;;;8.93;;
48114;SDS011;33903;44.704;10.448;2024-02-28T09:39:09;16.25;;;8.30;;
48114;SDS011;33903;44.704;10.448;2024-02-28T09:42:14;15.30;;;7.65;;
48114;SDS011;33903;44.704;10.448;2024-02-28T09:45:20;16.80;;;8.45;;
48114;SDS011;33903;44.704;10.448;2024-02-28T09:48:27;12.63;;;7.43;;
48114;SDS011;33903;44.704;10.448;2024-02-28T09:51:34;17.30;;;7.72;;
48114;SDS011;33903;44.704;10.448;2024-02-28T09:54:39;16.58;;;6.32;;
48114;SDS011;33903;44.704;10.448;2024-02-28T09:57:47;19.00;;;8.07;;
48114;SDS011;33903;44.704;10.448;2024-02-28T10:00:52;18.40;;;7.40;;
48114;SDS011;33903;44.704;10.448;2024-02-28T10:04:03;14.35;;;7.30;;
48114;SDS011;33903;44.704;10.448;2024-02-28T10:07:12;15.57;;;7.65;;
48114;SDS011;33903;44.704;10.448;2024-02-28T10:10:18;14.40;;;8.70;;
48114;SDS011;33903;44.704;10.448;2024-02-28T10:13:23;12.45;;;7.53;;
48114;SDS011;33903;44.704;10.448;2024-02-28T10:16:29;15.50;;;6.97;;
48114;SDS011;33903;44.704;10.448;2024-02-28T10:19:33;13.27;;;7.00;;
48114;SDS011;33903;44.704;10.448;2024-02-28T10:22:38;12.75;;;6.45;;
48114;SDS011;33903;44.704;10.448;2024-02-28T10:28:50;11.80;;;7.20;;
48114;SDS011;33903;44.704;10.448;2024-02-28T10:31:55;13.68;;;7.05;;
48114;SDS011;33903;44.704;10.448;2024-02-28T10:35:00;12.55;;;8.48;;
48114;SDS011;33903;44.704;10.448;2024-02-28T10:38:06;13.27;;;7.93;;
48114;SDS011;33903;44.704;10.448;2024-02-28T10:41:11;12.77;;;7.00;;
48114;SDS011;33903;44.704;10.448;2024-02-28T10:44:17;13.00;;;7.90;;
48114;SDS011;33903;44.704;10.448;2024-02-28T10:47:22;15.07;;;8.68;;
48114;SDS011;33903;44.704;10.448;2024-02-28T10:50:28;12.23;;;7.90;;
48114;SDS011;33903;44.704;10.448;2024-02-28T10:53:36;14.90;;;8.15;;
48114;SDS011;33903;44.704;10.448;2024-02-28T10:56:46;12.93;;;8.00;;
48114;SDS011;33903;44.704;10.448;2024-02-28T10:59:51;13.35;;;6.97;;
48114;SDS011;33903;44.704;10.448;2024-02-28T11:02:56;11.50;;;7.82;;
48114;SDS011;33903;44.704;10.448;2024-02-28T11:06:02;12.70;;;8.23;;
48114;SDS011;33903;44.704;10.448;2024-02-28T11:09:07;10.68;;;7.63;;
48114;SDS011;33903;44.704;10.448;2024-02-28T11:12:28;12.43;;;8.13;;
48114;SDS011;33903;44.704;10.448;2024-02-28T11:15:34;12.52;;;7.57;;
48114;SDS011;33903;44.704;10.448;2024-02-28T11:18:48;12.02;;;8.88;;
48114;SDS011;33903;44.704;10.448;2024-02-28T11:21:54;11.88;;;7.82;;
48114;SDS011;33903;44.704;10.448;2024-02-28T11:24:59;10.65;;;7.85;;
48114;SDS011;33903;44.704;10.448;2024-02-28T11:28:03;10.10;;;7.47;;
48114;SDS011;33903;44.704;10.448;2024-02-28T11:31:09;10.43;;;6.90;;
48114;SDS011;33903;44.704;10.448;2024-02-28T11:34:13;9.82;;;7.30;;
48114;SDS011;33903;44.704;10.448;2024-02-28T11:37:18;9.45;;;6.47;;
48114;SDS011;33903;44.704;10.448;2024-02-28T11:40:23;9.48;;;6.22;;
48114;SDS011;33903;44.704;10.448;2024-02-28T11:43:32;10.05;;;6.47;;
48114;SDS011;33903;44.704;10.448;2024-02-28T11:46:42;8.82;;;6.45;;
48114;SDS011;33903;44.704;10.448;2024-02-28T11:49:48;9.48;;;6.88;;
48114;SDS011;33903;44.704;10.448;2024-02-28T11:52:53;9.70;;;6.35;;
48114;SDS011;33903;44.704;10.448;2024-02-28T11:55:58;10.25;;;6.47;;
48114;SDS011;33903;44.704;10.448;2024-02-28T11:59:02;8.30;;;6.45;;
48114;SDS011;33903;44.704;10.448;2024-02-28T12:02:12;7.50;;;6.28;;
48114;SDS011;33903;44.704;10.448;2024-02-28T12:05:19;8.88;;;6.80;;
48114;SDS011;33903;44.704;10.448;2024-02-28T12:08:24;7.40;;;6.60;;
48114;SDS011;33903;44.704;10.448;2024-02-28T12:11:30;7.22;;;6.13;;
48114;SDS011;33903;44.704;10.448;2024-02-28T12:14:38;7.03;;;6.32;;
48114;SDS011;33903;44.704;10.448;2024-02-28T12:17:44;10.35;;;6.72;;
48114;SDS011;33903;44.704;10.448;2024-02-28T12:20:50;9.13;;;7.25;;
48114;SDS011;33903;44.704;10.448;2024-02-28T12:23:56;9.23;;;7.32;;
48114;SDS011;33903;44.704;10.448;2024-02-28T12:27:00;8.52;;;6.90;;
48114;SDS011;33903;44.704;10.448;2024-02-28T12:30:05;8.93;;;7.00;;
48114;SDS011;33903;44.704;10.448;2024-02-28T12:33:10;9.52;;;7.50;;
48114;SDS011;33903;44.704;10.448;2024-02-28T12:36:15;7.63;;;6.70;;
48114;SDS011;33903;44.704;10.448;2024-02-28T12:39:19;7.45;;;6.50;;
48114;SDS011;33903;44.704;10.448;2024-02-28T12:42:24;6.93;;;6.22;;
48114;SDS011;33903;44.704;10.448;2024-02-28T12:45:29;6.93;;;5.60;;
48114;SDS011;33903;44.704;10.448;2024-02-28T12:48:38;7.15;;;5.32;;
48114;SDS011;33903;44.704;10.448;2024-02-28T12:51:45;5.50;;;4.70;;
48114;SDS011;33903;44.704;10.448;2024-02-28T12:54:50;6.32;;;3.53;;
48114;SDS011;33903;44.704;10.448;2024-02-28T12:57:55;4.97;;;3.22;;
48114;SDS011;33903;44.704;10.448;2024-02-28T13:00:59;6.15;;;3.40;;
48114;SDS011;33903;44.704;10.448;2024-02-28T13:04:04;5.93;;;3.42;;
48114;SDS011;33903;44.704;10.448;2024-02-28T13:07:09;7.55;;;3.00;;
48114;SDS011;33903;44.704;10.448;2024-02-28T13:10:14;4.05;;;2.20;;
48114;SDS011;33903;44.704;10.448;2024-02-28T13:13:18;10.27;;;4.43;;
48114;SDS011;33903;44.704;10.448;2024-02-28T13:16:23;4.18;;;2.17;;
48114;SDS011;33903;44.704;10.448;2024-02-28T13:19:27;6.47;;;3.90;;
48114;SDS011;33903;44.704;10.448;2024-02-28T13:22:32;6.88;;;3.08;;
48114;SDS011;33903;44.704;10.448;2024-02-28T13:25:37;9.23;;;2.80;;
48114;SDS011;33903;44.704;10.448;2024-02-28T13:28:42;6.97;;;3.03;;
48114;SDS011;33903;44.704;10.448;2024-02-28T13:31:46;4.80;;;2.45;;
48114;SDS011;33903;44.704;10.448;2024-02-28T13:34:51;6.40;;;2.70;;
48114;SDS011;33903;44.704;10.448;2024-02-28T13:37:55;3.30;;;2.00;;
48114;SDS011;33903;44.704;10.448;2024-02-28T13:41:03;9.10;;;3.60;;
48114;SDS011;33903;44.704;10.448;2024-02-28T13:44:08;4.05;;;2.60;;
48114;SDS011;33903;44.704;10.448;2024-02-28T13:47:13;7.30;;;3.30;;
48114;SDS011;33903;44.704;10.448;2024-02-28T13:50:18;8.23;;;2.75;;
48114;SDS011;33903;44.704;10.448;2024-02-28T13:53:23;6.72;;;2.90;;
48114;SDS011;33903;44.704;10.448;2024-02-28T13:56:28;6.32;;;4.20;;
48114;SDS011;33903;44.704;10.448;2024-02-28T13:59:34;5.10;;;3.25;;
48114;SDS011;33903;44.704;10.448;2024-02-28T14:02:39;5.25;;;3.60;;
48114;SDS011;33903;44.704;10.448;2024-02-28T14:05:44;5.72;;;3.10;;
48114;SDS011;33903;44.704;10.448;2024-02-28T14:08:50;6.97;;;2.83;;
48114;SDS011;33903;44.704;10.448;2024-02-28T14:11:57;5.55;;;2.97;;
48114;SDS011;33903;44.704;10.448;2024-02-28T14:15:01;5.95;;;2.90;;
48114;SDS011;33903;44.704;10.448;2024-02-28T14:18:06;6.85;;;2.90;;
48114;SDS011;33903;44.704;10.448;2024-02-28T14:21:11;6.72;;;3.80;;
48114;SDS011;33903;44.704;10.448;2024-02-28T14:24:15;7.15;;;3.90;;
48114;SDS011;33903;44.704;10.448;2024-02-28T14:27:23;6.57;;;3.63;;
48114;SDS011;33903;44.704;10.448;2024-02-28T14:30:29;12.88;;;4.57;;
48114;SDS011;33903;44.704;10.448;2024-02-28T14:33:34;5.60;;;3.30;;
48114;SDS011;33903;44.704;10.448;2024-02-28T14:36:40;4.88;;;3.25;;
48114;SDS011;33903;44.704;10.448;2024-02-28T14:39:45;4.00;;;2.70;;
48114;SDS011;33903;44.704;10.448;2024-02-28T14:42:50;6.22;;;2.97;;
48114;SDS011;33903;44.704;10.448;2024-02-28T14:45:55;6.57;;;3.78;;
48114;SDS011;33903;44.704;10.448;2024-02-28T14:49:00;7.03;;;3.30;;
48114;SDS011;33903;44.704;10.448;2024-02-28T14:52:05;6.90;;;3.38;;
48114;SDS011;33903;44.704;10.448;2024-02-28T14:55:10;6.90;;;3.20;;
48114;SDS011;33903;44.704;10.448;2024-02-28T14:58:15;10.45;;;4.35;;
48114;SDS011;33903;44.704;10.448;2024-02-28T15:01:21;9.35;;;4.07;;
48114;SDS011;33903;44.704;10.448;2024-02-28T15:04:27;7.93;;;2.90;;
48114;SDS011;33903;44.704;10.448;2024-02-28T15:07:33;14.38;;;4.15;;
48114;SDS011;33903;44.704;10.448;2024-02-28T15:10:38;13.73;;;4.40;;
48114;SDS011;33903;44.704;10.448;2024-02-28T15:13:43;10.50;;;3.30;;
48114;SDS011;33903;44.704;10.448;2024-02-28T15:16:48;12.25;;;3.35;;
48114;SDS011;33903;44.704;10.448;2024-02-28T15:19:53;7.28;;;2.92;;
48114;SDS011;33903;44.704;10.448;2024-02-28T15:22:58;11.32;;;3.78;;
48114;SDS011;33903;44.704;10.448;2024-02-28T15:26:03;8.40;;;3.03;;
48114;SDS011;33903;44.704;10.448;2024-02-28T15:29:08;8.90;;;3.17;;
48114;SDS011;33903;44.704;10.448;2024-02-28T15:32:13;10.23;;;3.05;;
48114;SDS011;33903;44.704;10.448;2024-02-28T15:35:17;11.73;;;3.88;;
48114;SDS011;33903;44.704;10.448;2024-02-28T15:38:22;12.05;;;4.00;;
48114;SDS011;33903;44.704;10.448;2024-02-28T15:41:27;8.80;;;3.25;;
48114;SDS011;33903;44.704;10.448;2024-02-28T15:44:32;11.73;;;3.78;;
48114;SDS011;33903;44.704;10.448;2024-02-28T15:47:38;9.02;;;3.17;;
48114;SDS011;33903;44.704;10.448;2024-02-28T15:50:42;9.38;;;3.30;;
48114;SDS011;33903;44.704;10.448;2024-02-28T15:53:47;10.63;;;3.58;;
48114;SDS011;33903;44.704;10.448;2024-02-28T15:56:53;8.77;;;3.60;;
48114;SDS011;33903;44.704;10.448;2024-02-28T15:59:57;9.88;;;4.07;;
48114;SDS011;33903;44.704;10.448;2024-02-28T16:03:02;12.77;;;3.95;;
48114;SDS011;33903;44.704;10.448;2024-02-28T16:06:07;13.18;;;3.30;;
48114;SDS011;33903;44.704;10.448;2024-02-28T16:09:12;7.43;;;2.47;;
48114;SDS011;33903;44.704;10.448;2024-02-28T16:12:18;6.88;;;2.42;;
48114;SDS011;33903;44.704;10.448;2024-02-28T16:15:24;11.32;;;2.65;;
48114;SDS011;33903;44.704;10.448;2024-02-28T16:18:28;6.15;;;2.97;;
48114;SDS011;33903;44.704;10.448;2024-02-28T16:21:33;7.45;;;2.80;;
48114;SDS011;33903;44.704;10.448;2024-02-28T16:24:38;7.22;;;2.83;;
48114;SDS011;33903;44.704;10.448;2024-02-28T16:27:43;7.70;;;2.78;;
48114;SDS011;33903;44.704;10.448;2024-02-28T16:30:47;10.52;;;2.40;;
48114;SDS011;33903;44.704;10.448;2024-02-28T16:33:52;5.63;;;1.75;;
48114;SDS011;33903;44.704;10.448;2024-02-28T16:36:57;9.38;;;2.30;;
48114;SDS011;33903;44.704;10.448;2024-02-28T16:40:01;8.88;;;3.42;;
48114;SDS011;33903;44.704;10.448;2024-02-28T16:43:06;7.38;;;2.40;;
48114;SDS011;33903;44.704;10.448;2024-02-28T16:46:11;10.40;;;2.53;;
48114;SDS011;33903;44.704;10.448;2024-02-28T16:49:17;7.55;;;2.58;;
48114;SDS011;33903;44.704;10.448;2024-02-28T16:52:23;9.65;;;2.13;;
48114;SDS011;33903;44.704;10.448;2024-02-28T16:55:28;5.40;;;1.85;;
48114;SDS011;33903;44.704;10.448;2024-02-28T16:58:33;10.68;;;3.95;;
48114;SDS011;33903;44.704;10.448;2024-02-28T17:01:40;6.93;;;2.50;;
48114;SDS011;33903;44.704;10.448;2024-02-28T17:04:45;5.90;;;2.15;;
48114;SDS011;33903;44.704;10.448;2024-02-28T17:07:49;6.75;;;2.33;;
48114;SDS011;33903;44.704;10.448;2024-02-28T17:10:54;6.63;;;2.30;;
48114;SDS011;33903;44.704;10.448;2024-02-28T17:13:59;11.82;;;2.80;;
48114;SDS011;33903;44.704;10.448;2024-02-28T17:17:04;7.78;;;3.30;;
48114;SDS011;33903;44.704;10.448;2024-02-28T17:20:09;6.70;;;3.20;;
48114;SDS011;33903;44.704;10.448;2024-02-28T17:23:14;8.40;;;3.58;;
48114;SDS011;33903;44.704;10.448;2024-02-28T17:26:18;6.28;;;3.25;;
48114;SDS011;33903;44.704;10.448;2024-02-28T17:29:23;6.85;;;3.20;;
48114;SDS011;33903;44.704;10.448;2024-02-28T17:32:28;6.75;;;3.47;;
48114;SDS011;33903;44.704;10.448;2024-02-28T17:35:33;9.68;;;3.38;;
48114;SDS011;33903;44.704;10.448;2024-02-28T17:38:38;10.88;;;4.22;;
48114;SDS011;33903;44.704;10.448;2024-02-28T17:41:43;8.85;;;3.03;;
48114;SDS011;33903;44.704;10.448;2024-02-28T17:44:52;11.52;;;3.33;;
48114;SDS011;33903;44.704;10.448;2024-02-28T17:47:57;5.93;;;2.85;;
48114;SDS011;33903;44.704;10.448;2024-02-28T17:51:02;8.38;;;3.25;;
48114;SDS011;33903;44.704;10.448;2024-02-28T17:54:07;8.20;;;3.35;;
48114;SDS011;33903;44.704;10.448;2024-02-28T17:57:12;7.30;;;3.38;;
48114;SDS011;33903;44.704;10.448;2024-02-28T18:00:19;10.50;;;3.50;;
48114;SDS011;33903;44.704;10.448;2024-02-28T18:03:29;8.27;;;3.53;;
48114;SDS011;33903;44.704;10.448;2024-02-28T18:06:35;7.95;;;3.97;;
48114;SDS011;33903;44.704;10.448;2024-02-28T18:09:43;7.43;;;3.90;;